sensor_id;sensor_type;location;lat;lon;timestamp;temperature;humidity
2839;DHT22;1427;48.510;9.060;2022-10-23T00:01:13;11.40;99.90
2839;DHT22;1427;48.510;9.060;2022-10-23T00:03:42;11.30;99.90
2839;DHT22;1427;48.510;9.060;2022-10-23T00:06:10;11.30;99.90
2839;DHT22;1427;48.510;9.060;2022-10-23T00:08:39;11.30;99.90
2839;DHT22;1427;48.510;9.060;2022-10-23T00:11:08;11.10;99.90
2839;DHT22;1427;48.510;9.060;2022-10-23T00:13:38;11.10;99.90
2839;DHT22;1427;48.510;9.060;2022-10-23T00:16:07;11.10;99.90
2839;DHT22;1427;48.510;9.060;2022-10-23T00:18:35;11.00;99.90
2839;DHT22;1427;48.510;9.060;2022-10-23T00:21:06;11.00;99.90
2839;DHT22;1427;48.510;9.060;2022-10-23T00:23:35;11.00;99.90
2839;DHT22;1427;48.510;9.060;2022-10-23T00:26:03;10.90;99.90
2839;DHT22;1427;48.510;9.060;2022-10-23T00:28:31;10.90;99.90
2839;DHT22;1427;48.510;9.060;2022-10-23T00:31:02;10.80;99.90
2839;DHT22;1427;48.510;9.060;2022-10-23T00:33:32;10.90;99.90
2839;DHT22;1427;48.510;9.060;2022-10-23T00:36:02;10.80;99.90
2839;DHT22;1427;48.510;9.060;2022-10-23T00:38:30;10.80;99.90
2839;DHT22;1427;48.510;9.060;2022-10-23T00:40:58;10.90;99.90
2839;DHT22;1427;48.510;9.060;2022-10-23T00:43:28;10.90;99.90
2839;DHT22;1427;48.510;9.060;2022-10-23T00:45:57;10.90;99.90
2839;DHT22;1427;48.510;9.060;2022-10-23T00:48:27;10.90;99.90
2839;DHT22;1427;48.510;9.060;2022-10-23T00:50:56;10.90;99.90
2839;DHT22;1427;48.510;9.060;2022-10-23T00:53:24;10.80;99.90
2839;DHT22;1427;48.510;9.060;2022-10-23T00:55:52;10.90;99.90
2839;DHT22;1427;48.510;9.060;2022-10-23T00:58:23;10.80;99.90
2839;DHT22;1427;48.510;9.060;2022-10-23T01:00:54;10.80;99.90
2839;DHT22;1427;48.510;9.060;2022-10-23T01:03:25;10.90;99.90
2839;DHT22;1427;48.510;9.060;2022-10-23T01:05:59;10.80;99.90
2839;DHT22;1427;48.510;9.060;2022-10-23T01:08:33;10.80;99.90
2839;DHT22;1427;48.510;9.060;2022-10-23T01:11:08;11.00;99.90
2839;DHT22;1427;48.510;9.060;2022-10-23T01:13:43;10.90;99.90
2839;DHT22;1427;48.510;9.060;2022-10-23T01:16:17;10.90;99.90
2839;DHT22;1427;48.510;9.060;2022-10-23T01:18:52;10.80;99.90
2839;DHT22;1427;48.510;9.060;2022-10-23T01:21:30;10.80;99.90
2839;DHT22;1427;48.510;9.060;2022-10-23T01:24:16;10.80;99.90
2839;DHT22;1427;48.510;9.060;2022-10-23T01:27:16;10.80;99.90
2839;DHT22;1427;48.510;9.060;2022-10-23T01:29:47;10.80;99.90
2839;DHT22;1427;48.510;9.060;2022-10-23T01:32:23;10.70;99.90
2839;DHT22;1427;48.510;9.060;2022-10-23T01:34:59;10.70;99.90
2839;DHT22;1427;48.510;9.060;2022-10-23T01:37:34;10.70;99.90
2839;DHT22;1427;48.510;9.060;2022-10-23T01:40:05;10.60;99.90
2839;DHT22;1427;48.510;9.060;2022-10-23T01:42:40;10.60;99.90
2839;DHT22;1427;48.510;9.060;2022-10-23T01:45:16;10.60;99.90
2839;DHT22;1427;48.510;9.060;2022-10-23T01:47:47;10.60;99.90
2839;DHT22;1427;48.510;9.060;2022-10-23T01:50:17;10.60;99.90
2839;DHT22;1427;48.510;9.060;2022-10-23T01:52:47;10.70;99.90
2839;DHT22;1427;48.510;9.060;2022-10-23T01:55:16;10.70;99.90
2839;DHT22;1427;48.510;9.060;2022-10-23T01:57:48;10.70;99.90
2839;DHT22;1427;48.510;9.060;2022-10-23T02:00:18;10.70;99.90
2839;DHT22;1427;48.510;9.060;2022-10-23T02:02:48;10.80;99.90
2839;DHT22;1427;48.510;9.060;2022-10-23T02:05:19;10.70;99.90
2839;DHT22;1427;48.510;9.060;2022-10-23T02:07:48;10.70;99.90
2839;DHT22;1427;48.510;9.060;2022-10-23T02:10:17;10.70;99.90
2839;DHT22;1427;48.510;9.060;2022-10-23T02:12:52;10.70;99.90
2839;DHT22;1427;48.510;9.060;2022-10-23T02:15:27;10.70;99.90
2839;DHT22;1427;48.510;9.060;2022-10-23T02:18:02;10.60;99.90
2839;DHT22;1427;48.510;9.060;2022-10-23T02:20:36;10.60;99.90
2839;DHT22;1427;48.510;9.060;2022-10-23T02:23:14;10.60;99.90
2839;DHT22;1427;48.510;9.060;2022-10-23T02:25:48;10.50;99.90
2839;DHT22;1427;48.510;9.060;2022-10-23T02:28:22;10.60;99.90
2839;DHT22;1427;48.510;9.060;2022-10-23T02:30:52;10.60;99.90
2839;DHT22;1427;48.510;9.060;2022-10-23T02:33:22;10.50;99.90
2839;DHT22;1427;48.510;9.060;2022-10-23T02:35:50;10.50;99.90
2839;DHT22;1427;48.510;9.060;2022-10-23T02:38:30;10.50;99.90
2839;DHT22;1427;48.510;9.060;2022-10-23T02:41:05;10.50;99.90
2839;DHT22;1427;48.510;9.060;2022-10-23T02:43:41;10.50;99.90
2839;DHT22;1427;48.510;9.060;2022-10-23T02:46:17;10.40;99.90
2839;DHT22;1427;48.510;9.060;2022-10-23T02:48:55;10.20;99.90
2839;DHT22;1427;48.510;9.060;2022-10-23T02:51:31;10.20;99.90
2839;DHT22;1427;48.510;9.060;2022-10-23T02:54:05;10.10;99.90
2839;DHT22;1427;48.510;9.060;2022-10-23T02:56:41;10.10;99.90
2839;DHT22;1427;48.510;9.060;2022-10-23T02:59:18;10.20;99.90
2839;DHT22;1427;48.510;9.060;2022-10-23T03:01:52;10.30;99.90
2839;DHT22;1427;48.510;9.060;2022-10-23T03:04:23;10.20;99.90
2839;DHT22;1427;48.510;9.060;2022-10-23T03:06:52;10.30;99.90
2839;DHT22;1427;48.510;9.060;2022-10-23T03:09:21;10.40;99.90
2839;DHT22;1427;48.510;9.060;2022-10-23T03:11:49;10.40;99.90
2839;DHT22;1427;48.510;9.060;2022-10-23T03:14:19;10.30;99.90
2839;DHT22;1427;48.510;9.060;2022-10-23T03:16:47;10.30;99.90
2839;DHT22;1427;48.510;9.060;2022-10-23T03:19:15;10.20;99.90
2839;DHT22;1427;48.510;9.060;2022-10-23T03:21:43;10.20;99.90
2839;DHT22;1427;48.510;9.060;2022-10-23T03:24:11;10.20;99.90
2839;DHT22;1427;48.510;9.060;2022-10-23T03:26:39;10.20;99.90
2839;DHT22;1427;48.510;9.060;2022-10-23T03:29:08;10.30;99.90
2839;DHT22;1427;48.510;9.060;2022-10-23T03:31:37;10.30;99.90
2839;DHT22;1427;48.510;9.060;2022-10-23T03:34:05;10.20;99.90
2839;DHT22;1427;48.510;9.060;2022-10-23T03:36:37;10.10;99.90
2839;DHT22;1427;48.510;9.060;2022-10-23T03:39:06;10.10;99.90
2839;DHT22;1427;48.510;9.060;2022-10-23T03:41:34;10.30;99.90
2839;DHT22;1427;48.510;9.060;2022-10-23T03:44:03;10.00;99.90
2839;DHT22;1427;48.510;9.060;2022-10-23T03:46:37;10.00;99.90
2839;DHT22;1427;48.510;9.060;2022-10-23T03:49:06;10.00;99.90
2839;DHT22;1427;48.510;9.060;2022-10-23T03:51:34;10.00;99.90
2839;DHT22;1427;48.510;9.060;2022-10-23T03:54:02;9.90;99.90
2839;DHT22;1427;48.510;9.060;2022-10-23T03:56:31;9.80;99.90
2839;DHT22;1427;48.510;9.060;2022-10-23T03:58:59;9.80;99.90
2839;DHT22;1427;48.510;9.060;2022-10-23T04:01:27;9.90;99.90
2839;DHT22;1427;48.510;9.060;2022-10-23T04:03:56;9.90;99.90
2839;DHT22;1427;48.510;9.060;2022-10-23T04:06:25;9.80;99.90
2839;DHT22;1427;48.510;9.060;2022-10-23T04:08:53;9.90;99.90
2839;DHT22;1427;48.510;9.060;2022-10-23T04:11:21;9.80;99.90
2839;DHT22;1427;48.510;9.060;2022-10-23T04:13:49;9.70;99.90
2839;DHT22;1427;48.510;9.060;2022-10-23T04:16:17;9.60;99.90
2839;DHT22;1427;48.510;9.060;2022-10-23T04:18:45;9.60;99.90
2839;DHT22;1427;48.510;9.060;2022-10-23T04:21:15;9.50;99.90
2839;DHT22;1427;48.510;9.060;2022-10-23T04:23:43;9.50;99.90
2839;DHT22;1427;48.510;9.060;2022-10-23T04:26:12;9.50;99.90
2839;DHT22;1427;48.510;9.060;2022-10-23T04:28:40;9.50;99.90
2839;DHT22;1427;48.510;9.060;2022-10-23T04:31:08;9.70;99.90
2839;DHT22;1427;48.510;9.060;2022-10-23T04:33:36;9.70;99.90
2839;DHT22;1427;48.510;9.060;2022-10-23T04:36:05;9.70;99.90
2839;DHT22;1427;48.510;9.060;2022-10-23T04:38:35;9.60;99.90
2839;DHT22;1427;48.510;9.060;2022-10-23T04:41:03;9.40;99.90
2839;DHT22;1427;48.510;9.060;2022-10-23T04:43:31;9.50;99.90
2839;DHT22;1427;48.510;9.060;2022-10-23T04:45:59;9.50;99.90
2839;DHT22;1427;48.510;9.060;2022-10-23T04:48:27;9.50;99.90
2839;DHT22;1427;48.510;9.060;2022-10-23T04:50:57;9.50;99.90
2839;DHT22;1427;48.510;9.060;2022-10-23T04:53:26;9.50;99.90
2839;DHT22;1427;48.510;9.060;2022-10-23T04:55:57;9.40;99.90
2839;DHT22;1427;48.510;9.060;2022-10-23T04:58:27;9.50;99.90
2839;DHT22;1427;48.510;9.060;2022-10-23T05:00:56;9.40;99.90
2839;DHT22;1427;48.510;9.060;2022-10-23T05:03:26;9.40;99.90
2839;DHT22;1427;48.510;9.060;2022-10-23T05:05:55;9.40;99.90
2839;DHT22;1427;48.510;9.060;2022-10-23T05:08:23;9.40;99.90
2839;DHT22;1427;48.510;9.060;2022-10-23T05:10:52;9.40;99.90
2839;DHT22;1427;48.510;9.060;2022-10-23T05:13:21;9.40;99.90
2839;DHT22;1427;48.510;9.060;2022-10-23T05:15:51;9.50;99.90
2839;DHT22;1427;48.510;9.060;2022-10-23T05:18:22;9.50;99.90
2839;DHT22;1427;48.510;9.060;2022-10-23T05:20:54;9.50;99.90
2839;DHT22;1427;48.510;9.060;2022-10-23T05:23:24;9.50;99.90
2839;DHT22;1427;48.510;9.060;2022-10-23T05:25:53;9.50;99.90
2839;DHT22;1427;48.510;9.060;2022-10-23T05:28:22;9.40;99.90
2839;DHT22;1427;48.510;9.060;2022-10-23T05:30:51;9.40;99.90
2839;DHT22;1427;48.510;9.060;2022-10-23T05:33:19;9.40;99.90
2839;DHT22;1427;48.510;9.060;2022-10-23T05:35:50;9.30;99.90
2839;DHT22;1427;48.510;9.060;2022-10-23T05:38:19;9.30;99.90
2839;DHT22;1427;48.510;9.060;2022-10-23T05:40:47;9.30;99.90
2839;DHT22;1427;48.510;9.060;2022-10-23T05:43:15;9.40;99.90
2839;DHT22;1427;48.510;9.060;2022-10-23T05:45:44;9.30;99.90
2839;DHT22;1427;48.510;9.060;2022-10-23T05:48:13;9.30;99.90
2839;DHT22;1427;48.510;9.060;2022-10-23T05:51:02;9.40;99.90
2839;DHT22;1427;48.510;9.060;2022-10-23T05:53:31;9.40;99.90
2839;DHT22;1427;48.510;9.060;2022-10-23T05:56:03;9.40;99.90
2839;DHT22;1427;48.510;9.060;2022-10-23T05:58:32;9.40;99.90
2839;DHT22;1427;48.510;9.060;2022-10-23T06:01:05;9.50;99.90
2839;DHT22;1427;48.510;9.060;2022-10-23T06:03:35;9.40;99.90
2839;DHT22;1427;48.510;9.060;2022-10-23T06:06:04;9.40;99.90
2839;DHT22;1427;48.510;9.060;2022-10-23T06:08:32;9.40;99.90
2839;DHT22;1427;48.510;9.060;2022-10-23T06:11:05;9.40;99.90
2839;DHT22;1427;48.510;9.060;2022-10-23T06:13:34;9.40;99.90
2839;DHT22;1427;48.510;9.060;2022-10-23T06:16:11;9.40;99.90
2839;DHT22;1427;48.510;9.060;2022-10-23T06:18:39;9.50;99.90
2839;DHT22;1427;48.510;9.060;2022-10-23T06:21:08;9.40;99.90
2839;DHT22;1427;48.510;9.060;2022-10-23T06:23:37;9.50;99.90
2839;DHT22;1427;48.510;9.060;2022-10-23T06:26:08;9.70;99.90
2839;DHT22;1427;48.510;9.060;2022-10-23T06:28:36;9.60;99.90
2839;DHT22;1427;48.510;9.060;2022-10-23T06:31:05;9.60;99.90
2839;DHT22;1427;48.510;9.060;2022-10-23T06:33:35;9.60;99.90
2839;DHT22;1427;48.510;9.060;2022-10-23T06:36:04;9.60;99.90
2839;DHT22;1427;48.510;9.060;2022-10-23T06:38:36;9.60;99.90
2839;DHT22;1427;48.510;9.060;2022-10-23T06:41:10;9.60;99.90
2839;DHT22;1427;48.510;9.060;2022-10-23T06:43:39;9.60;99.90
2839;DHT22;1427;48.510;9.060;2022-10-23T06:46:07;9.70;99.90
2839;DHT22;1427;48.510;9.060;2022-10-23T06:48:37;9.80;99.90
2839;DHT22;1427;48.510;9.060;2022-10-23T06:51:06;9.80;99.90
2839;DHT22;1427;48.510;9.060;2022-10-23T06:53:35;9.90;99.90
2839;DHT22;1427;48.510;9.060;2022-10-23T06:56:05;10.10;99.90
2839;DHT22;1427;48.510;9.060;2022-10-23T06:58:35;10.10;99.90
2839;DHT22;1427;48.510;9.060;2022-10-23T07:01:05;10.10;99.90
2839;DHT22;1427;48.510;9.060;2022-10-23T07:03:34;10.40;99.90
2839;DHT22;1427;48.510;9.060;2022-10-23T07:06:05;10.50;99.90
2839;DHT22;1427;48.510;9.060;2022-10-23T07:08:34;10.50;99.90
2839;DHT22;1427;48.510;9.060;2022-10-23T07:11:04;10.70;99.90
2839;DHT22;1427;48.510;9.060;2022-10-23T07:13:33;10.70;99.90
2839;DHT22;1427;48.510;9.060;2022-10-23T07:16:09;10.90;99.90
2839;DHT22;1427;48.510;9.060;2022-10-23T07:18:38;11.10;99.90
2839;DHT22;1427;48.510;9.060;2022-10-23T07:21:07;11.20;99.90
2839;DHT22;1427;48.510;9.060;2022-10-23T07:23:36;11.30;99.90
2839;DHT22;1427;48.510;9.060;2022-10-23T07:26:06;11.50;99.90
2839;DHT22;1427;48.510;9.060;2022-10-23T07:28:35;11.60;99.90
2839;DHT22;1427;48.510;9.060;2022-10-23T07:31:03;11.60;99.90
2839;DHT22;1427;48.510;9.060;2022-10-23T07:33:32;11.60;99.90
2839;DHT22;1427;48.510;9.060;2022-10-23T07:36:02;11.70;99.90
2839;DHT22;1427;48.510;9.060;2022-10-23T07:38:31;12.00;99.90
2839;DHT22;1427;48.510;9.060;2022-10-23T07:41:00;11.80;99.90
2839;DHT22;1427;48.510;9.060;2022-10-23T07:43:28;11.80;99.90
2839;DHT22;1427;48.510;9.060;2022-10-23T07:45:57;12.20;99.90
2839;DHT22;1427;48.510;9.060;2022-10-23T07:48:26;12.50;99.90
2839;DHT22;1427;48.510;9.060;2022-10-23T07:50:57;12.90;99.90
2839;DHT22;1427;48.510;9.060;2022-10-23T07:53:27;13.10;99.90
2839;DHT22;1427;48.510;9.060;2022-10-23T07:55:58;13.20;99.90
2839;DHT22;1427;48.510;9.060;2022-10-23T07:58:28;13.40;99.90
2839;DHT22;1427;48.510;9.060;2022-10-23T08:00:58;13.60;99.90
2839;DHT22;1427;48.510;9.060;2022-10-23T08:03:28;14.00;99.90
2839;DHT22;1427;48.510;9.060;2022-10-23T08:05:57;14.30;99.90
2839;DHT22;1427;48.510;9.060;2022-10-23T08:08:26;14.70;99.90
2839;DHT22;1427;48.510;9.060;2022-10-23T08:10:54;15.10;99.90
2839;DHT22;1427;48.510;9.060;2022-10-23T08:13:24;15.30;99.90
2839;DHT22;1427;48.510;9.060;2022-10-23T08:15:52;15.50;99.90
2839;DHT22;1427;48.510;9.060;2022-10-23T08:18:21;15.60;99.90
2839;DHT22;1427;48.510;9.060;2022-10-23T08:20:49;16.00;99.90
2839;DHT22;1427;48.510;9.060;2022-10-23T08:23:19;16.00;99.90
2839;DHT22;1427;48.510;9.060;2022-10-23T08:25:47;16.00;99.90
2839;DHT22;1427;48.510;9.060;2022-10-23T08:28:16;16.00;99.90
2839;DHT22;1427;48.510;9.060;2022-10-23T08:30:45;15.50;99.90
2839;DHT22;1427;48.510;9.060;2022-10-23T08:33:13;14.90;99.90
2839;DHT22;1427;48.510;9.060;2022-10-23T08:35:42;14.70;99.90
2839;DHT22;1427;48.510;9.060;2022-10-23T08:38:10;14.70;99.90
2839;DHT22;1427;48.510;9.060;2022-10-23T08:40:43;14.90;99.90
2839;DHT22;1427;48.510;9.060;2022-10-23T08:43:18;14.90;99.90
2839;DHT22;1427;48.510;9.060;2022-10-23T08:45:54;15.50;99.90
2839;DHT22;1427;48.510;9.060;2022-10-23T08:48:27;16.00;99.90
2839;DHT22;1427;48.510;9.060;2022-10-23T08:50:59;16.40;99.90
2839;DHT22;1427;48.510;9.060;2022-10-23T08:53:38;16.70;99.90
2839;DHT22;1427;48.510;9.060;2022-10-23T08:56:12;16.80;99.90
2839;DHT22;1427;48.510;9.060;2022-10-23T08:58:47;17.20;99.90
2839;DHT22;1427;48.510;9.060;2022-10-23T09:01:33;17.60;99.90
2839;DHT22;1427;48.510;9.060;2022-10-23T09:04:04;17.40;99.90
2839;DHT22;1427;48.510;9.060;2022-10-23T09:06:38;17.60;99.90
2839;DHT22;1427;48.510;9.060;2022-10-23T09:12:06;17.30;99.90
2839;DHT22;1427;48.510;9.060;2022-10-23T09:15:11;17.40;99.90
2839;DHT22;1427;48.510;9.060;2022-10-23T09:17:43;18.00;99.90
2839;DHT22;1427;48.510;9.060;2022-10-23T09:20:17;17.90;99.90
2839;DHT22;1427;48.510;9.060;2022-10-23T09:22:47;18.50;99.90
2839;DHT22;1427;48.510;9.060;2022-10-23T09:25:19;18.60;99.90
2839;DHT22;1427;48.510;9.060;2022-10-23T09:27:49;18.80;99.90
2839;DHT22;1427;48.510;9.060;2022-10-23T09:30:28;18.80;99.90
2839;DHT22;1427;48.510;9.060;2022-10-23T09:32:59;19.00;99.90
2839;DHT22;1427;48.510;9.060;2022-10-23T09:35:29;19.40;99.90
2839;DHT22;1427;48.510;9.060;2022-10-23T09:37:57;19.30;99.90
2839;DHT22;1427;48.510;9.060;2022-10-23T09:40:30;19.10;99.90
2839;DHT22;1427;48.510;9.060;2022-10-23T09:43:02;19.30;99.90
2839;DHT22;1427;48.510;9.060;2022-10-23T09:45:32;19.70;99.90
2839;DHT22;1427;48.510;9.060;2022-10-23T09:48:12;19.90;99.90
2839;DHT22;1427;48.510;9.060;2022-10-23T09:50:52;20.30;99.90
2839;DHT22;1427;48.510;9.060;2022-10-23T09:53:31;20.60;99.90
2839;DHT22;1427;48.510;9.060;2022-10-23T09:56:02;20.90;99.90
2839;DHT22;1427;48.510;9.060;2022-10-23T09:58:35;21.00;99.90
2839;DHT22;1427;48.510;9.060;2022-10-23T10:01:04;21.30;99.90
2839;DHT22;1427;48.510;9.060;2022-10-23T10:03:36;21.40;99.90
2839;DHT22;1427;48.510;9.060;2022-10-23T10:06:05;21.60;99.90
2839;DHT22;1427;48.510;9.060;2022-10-23T10:08:39;21.60;99.90
2839;DHT22;1427;48.510;9.060;2022-10-23T10:11:16;21.30;99.90
2839;DHT22;1427;48.510;9.060;2022-10-23T10:16:50;21.10;99.90
2839;DHT22;1427;48.510;9.060;2022-10-23T10:19:30;21.30;99.90
2839;DHT22;1427;48.510;9.060;2022-10-23T10:22:07;21.70;99.90
2839;DHT22;1427;48.510;9.060;2022-10-23T10:24:43;21.40;99.90
2839;DHT22;1427;48.510;9.060;2022-10-23T10:27:32;21.20;99.90
2839;DHT22;1427;48.510;9.060;2022-10-23T10:30:12;20.90;99.90
2839;DHT22;1427;48.510;9.060;2022-10-23T10:32:45;20.80;99.90
2839;DHT22;1427;48.510;9.060;2022-10-23T10:35:33;20.90;99.90
2839;DHT22;1427;48.510;9.060;2022-10-23T10:38:36;21.10;99.90
2839;DHT22;1427;48.510;9.060;2022-10-23T10:44:21;21.10;99.90
2839;DHT22;1427;48.510;9.060;2022-10-23T10:46:55;21.20;99.90
2839;DHT22;1427;48.510;9.060;2022-10-23T10:49:31;21.20;99.90
2839;DHT22;1427;48.510;9.060;2022-10-23T10:52:11;20.70;99.90
2839;DHT22;1427;48.510;9.060;2022-10-23T10:54:51;20.30;99.90
2839;DHT22;1427;48.510;9.060;2022-10-23T10:57:30;20.10;99.90
2839;DHT22;1427;48.510;9.060;2022-10-23T11:00:03;19.80;99.90
2839;DHT22;1427;48.510;9.060;2022-10-23T11:02:38;19.70;99.90
2839;DHT22;1427;48.510;9.060;2022-10-23T11:05:17;19.70;99.90
2839;DHT22;1427;48.510;9.060;2022-10-23T11:07:54;19.80;99.90
2839;DHT22;1427;48.510;9.060;2022-10-23T11:10:23;19.80;99.90
2839;DHT22;1427;48.510;9.060;2022-10-23T11:12:51;19.90;99.90
2839;DHT22;1427;48.510;9.060;2022-10-23T11:15:24;20.10;99.90
2839;DHT22;1427;48.510;9.060;2022-10-23T11:17:55;20.40;99.90
2839;DHT22;1427;48.510;9.060;2022-10-23T11:20:39;20.60;99.90
2839;DHT22;1427;48.510;9.060;2022-10-23T11:23:28;20.70;99.90
2839;DHT22;1427;48.510;9.060;2022-10-23T11:26:08;20.80;99.90
2839;DHT22;1427;48.510;9.060;2022-10-23T11:28:54;21.00;99.90
2839;DHT22;1427;48.510;9.060;2022-10-23T11:31:34;21.30;99.90
2839;DHT22;1427;48.510;9.060;2022-10-23T11:37:05;21.70;99.90
2839;DHT22;1427;48.510;9.060;2022-10-23T11:39:38;22.00;99.90
2839;DHT22;1427;48.510;9.060;2022-10-23T11:42:25;22.30;99.90
2839;DHT22;1427;48.510;9.060;2022-10-23T11:44:56;22.60;99.90
2839;DHT22;1427;48.510;9.060;2022-10-23T11:47:32;22.80;99.90
2839;DHT22;1427;48.510;9.060;2022-10-23T11:50:24;22.90;99.90
2839;DHT22;1427;48.510;9.060;2022-10-23T11:52:59;22.90;99.90
2839;DHT22;1427;48.510;9.060;2022-10-23T11:56:02;22.80;99.90
2839;DHT22;1427;48.510;9.060;2022-10-23T11:58:42;22.90;99.90
2839;DHT22;1427;48.510;9.060;2022-10-23T12:01:27;23.30;99.90
2839;DHT22;1427;48.510;9.060;2022-10-23T12:04:01;23.50;99.90
2839;DHT22;1427;48.510;9.060;2022-10-23T12:06:32;23.70;99.90
2839;DHT22;1427;48.510;9.060;2022-10-23T12:09:17;23.70;99.90
2839;DHT22;1427;48.510;9.060;2022-10-23T12:12:02;23.80;99.90
2839;DHT22;1427;48.510;9.060;2022-10-23T12:14:32;23.60;99.90
2839;DHT22;1427;48.510;9.060;2022-10-23T12:17:02;23.40;99.90
2839;DHT22;1427;48.510;9.060;2022-10-23T12:19:46;23.20;99.90
2839;DHT22;1427;48.510;9.060;2022-10-23T12:22:15;23.10;99.90
2839;DHT22;1427;48.510;9.060;2022-10-23T12:24:58;22.80;99.90
2839;DHT22;1427;48.510;9.060;2022-10-23T12:27:36;22.70;99.90
2839;DHT22;1427;48.510;9.060;2022-10-23T12:30:19;22.80;99.90
2839;DHT22;1427;48.510;9.060;2022-10-23T12:33:05;22.70;99.90
2839;DHT22;1427;48.510;9.060;2022-10-23T12:36:02;22.80;99.90
2839;DHT22;1427;48.510;9.060;2022-10-23T12:38:41;23.00;99.90
2839;DHT22;1427;48.510;9.060;2022-10-23T12:41:12;22.90;99.90
2839;DHT22;1427;48.510;9.060;2022-10-23T12:43:44;23.30;99.90
2839;DHT22;1427;48.510;9.060;2022-10-23T12:46:31;23.50;99.90
2839;DHT22;1427;48.510;9.060;2022-10-23T12:49:03;23.80;99.90
2839;DHT22;1427;48.510;9.060;2022-10-23T12:51:33;24.30;99.90
2839;DHT22;1427;48.510;9.060;2022-10-23T12:54:02;24.70;99.90
2839;DHT22;1427;48.510;9.060;2022-10-23T12:56:34;25.10;99.90
2839;DHT22;1427;48.510;9.060;2022-10-23T12:59:13;25.30;99.90
2839;DHT22;1427;48.510;9.060;2022-10-23T13:01:42;25.60;99.90
2839;DHT22;1427;48.510;9.060;2022-10-23T13:04:24;25.30;99.80
2839;DHT22;1427;48.510;9.060;2022-10-23T13:06:55;25.30;99.90
2839;DHT22;1427;48.510;9.060;2022-10-23T13:09:28;24.80;99.90
2839;DHT22;1427;48.510;9.060;2022-10-23T13:11:57;24.60;99.90
2839;DHT22;1427;48.510;9.060;2022-10-23T13:14:33;24.30;99.90
2839;DHT22;1427;48.510;9.060;2022-10-23T13:17:09;24.30;99.90
2839;DHT22;1427;48.510;9.060;2022-10-23T13:19:38;24.50;99.90
2839;DHT22;1427;48.510;9.060;2022-10-23T13:22:16;24.70;99.90
2839;DHT22;1427;48.510;9.060;2022-10-23T13:24:46;24.80;99.90
2839;DHT22;1427;48.510;9.060;2022-10-23T13:27:24;24.80;99.90
2839;DHT22;1427;48.510;9.060;2022-10-23T13:29:55;24.60;99.90
2839;DHT22;1427;48.510;9.060;2022-10-23T13:32:26;24.60;99.90
2839;DHT22;1427;48.510;9.060;2022-10-23T13:34:56;24.60;99.90
2839;DHT22;1427;48.510;9.060;2022-10-23T13:37:36;24.00;99.90
2839;DHT22;1427;48.510;9.060;2022-10-23T13:40:06;23.60;99.90
2839;DHT22;1427;48.510;9.060;2022-10-23T13:42:36;23.30;99.90
2839;DHT22;1427;48.510;9.060;2022-10-23T13:45:10;22.80;99.90
2839;DHT22;1427;48.510;9.060;2022-10-23T13:47:43;22.60;99.90
2839;DHT22;1427;48.510;9.060;2022-10-23T13:50:11;22.30;99.90
2839;DHT22;1427;48.510;9.060;2022-10-23T13:52:39;22.20;99.90
2839;DHT22;1427;48.510;9.060;2022-10-23T13:55:17;22.00;99.90
2839;DHT22;1427;48.510;9.060;2022-10-23T13:57:46;21.90;99.90
2839;DHT22;1427;48.510;9.060;2022-10-23T14:00:17;21.80;99.90
2839;DHT22;1427;48.510;9.060;2022-10-23T14:02:45;21.70;99.90
2839;DHT22;1427;48.510;9.060;2022-10-23T14:05:13;21.50;99.90
2839;DHT22;1427;48.510;9.060;2022-10-23T14:07:41;21.50;99.90
2839;DHT22;1427;48.510;9.060;2022-10-23T14:10:10;21.40;99.90
2839;DHT22;1427;48.510;9.060;2022-10-23T14:12:39;21.50;99.90
2839;DHT22;1427;48.510;9.060;2022-10-23T14:15:09;21.50;99.90
2839;DHT22;1427;48.510;9.060;2022-10-23T14:17:39;21.50;99.90
2839;DHT22;1427;48.510;9.060;2022-10-23T14:20:08;21.40;99.90
2839;DHT22;1427;48.510;9.060;2022-10-23T14:22:37;21.20;99.90
2839;DHT22;1427;48.510;9.060;2022-10-23T14:25:05;21.20;99.90
2839;DHT22;1427;48.510;9.060;2022-10-23T14:27:34;21.20;99.90
2839;DHT22;1427;48.510;9.060;2022-10-23T14:30:02;21.10;99.90
2839;DHT22;1427;48.510;9.060;2022-10-23T14:32:31;20.90;99.90
2839;DHT22;1427;48.510;9.060;2022-10-23T14:35:01;21.00;99.90
2839;DHT22;1427;48.510;9.060;2022-10-23T14:37:29;21.00;99.90
2839;DHT22;1427;48.510;9.060;2022-10-23T14:39:58;20.90;99.90
2839;DHT22;1427;48.510;9.060;2022-10-23T14:42:26;21.00;99.90
2839;DHT22;1427;48.510;9.060;2022-10-23T14:45:00;21.10;99.90
2839;DHT22;1427;48.510;9.060;2022-10-23T14:47:30;21.30;99.90
2839;DHT22;1427;48.510;9.060;2022-10-23T14:50:00;21.50;99.90
2839;DHT22;1427;48.510;9.060;2022-10-23T14:52:28;21.70;99.90
2839;DHT22;1427;48.510;9.060;2022-10-23T14:54:56;21.70;99.90
2839;DHT22;1427;48.510;9.060;2022-10-23T14:57:26;21.60;99.90
2839;DHT22;1427;48.510;9.060;2022-10-23T14:59:55;21.70;99.90
2839;DHT22;1427;48.510;9.060;2022-10-23T15:02:23;21.60;99.90
2839;DHT22;1427;48.510;9.060;2022-10-23T15:04:51;21.50;99.90
2839;DHT22;1427;48.510;9.060;2022-10-23T15:07:20;21.40;99.90
2839;DHT22;1427;48.510;9.060;2022-10-23T15:09:48;21.40;99.90
2839;DHT22;1427;48.510;9.060;2022-10-23T15:12:17;21.30;99.90
2839;DHT22;1427;48.510;9.060;2022-10-23T15:14:45;21.10;99.90
2839;DHT22;1427;48.510;9.060;2022-10-23T15:17:13;20.90;99.90
2839;DHT22;1427;48.510;9.060;2022-10-23T15:19:41;21.00;99.90
2839;DHT22;1427;48.510;9.060;2022-10-23T15:22:09;21.00;99.90
2839;DHT22;1427;48.510;9.060;2022-10-23T15:24:39;20.90;99.90
2839;DHT22;1427;48.510;9.060;2022-10-23T15:27:07;21.00;99.90
2839;DHT22;1427;48.510;9.060;2022-10-23T15:29:40;21.00;99.90
2839;DHT22;1427;48.510;9.060;2022-10-23T15:32:08;20.90;99.90
2839;DHT22;1427;48.510;9.060;2022-10-23T15:34:36;20.90;99.90
2839;DHT22;1427;48.510;9.060;2022-10-23T15:37:08;20.90;99.90
2839;DHT22;1427;48.510;9.060;2022-10-23T15:39:36;20.80;99.90
2839;DHT22;1427;48.510;9.060;2022-10-23T15:42:06;20.60;99.90
2839;DHT22;1427;48.510;9.060;2022-10-23T15:44:34;20.60;99.90
2839;DHT22;1427;48.510;9.060;2022-10-23T15:47:02;20.60;99.90
2839;DHT22;1427;48.510;9.060;2022-10-23T15:49:30;20.50;99.90
2839;DHT22;1427;48.510;9.060;2022-10-23T15:51:59;20.40;99.90
2839;DHT22;1427;48.510;9.060;2022-10-23T15:54:28;20.30;99.90
2839;DHT22;1427;48.510;9.060;2022-10-23T15:56:59;20.20;99.90
2839;DHT22;1427;48.510;9.060;2022-10-23T15:59:29;20.10;99.90
2839;DHT22;1427;48.510;9.060;2022-10-23T16:01:58;20.00;99.90
2839;DHT22;1427;48.510;9.060;2022-10-23T16:04:26;19.80;99.90
2839;DHT22;1427;48.510;9.060;2022-10-23T16:06:55;19.80;99.90
2839;DHT22;1427;48.510;9.060;2022-10-23T16:09:23;19.70;99.90
2839;DHT22;1427;48.510;9.060;2022-10-23T16:11:51;19.50;99.90
2839;DHT22;1427;48.510;9.060;2022-10-23T16:14:20;19.40;99.90
2839;DHT22;1427;48.510;9.060;2022-10-23T16:16:50;19.30;99.90
2839;DHT22;1427;48.510;9.060;2022-10-23T16:19:18;19.30;99.90
2839;DHT22;1427;48.510;9.060;2022-10-23T16:21:46;19.20;99.90
2839;DHT22;1427;48.510;9.060;2022-10-23T16:24:14;19.10;99.90
2839;DHT22;1427;48.510;9.060;2022-10-23T16:26:42;19.00;99.90
2839;DHT22;1427;48.510;9.060;2022-10-23T16:29:15;19.00;99.90
2839;DHT22;1427;48.510;9.060;2022-10-23T16:31:44;19.00;99.90
2839;DHT22;1427;48.510;9.060;2022-10-23T16:34:13;18.90;99.90
2839;DHT22;1427;48.510;9.060;2022-10-23T16:36:41;18.70;99.90
2839;DHT22;1427;48.510;9.060;2022-10-23T16:39:12;18.70;99.90
2839;DHT22;1427;48.510;9.060;2022-10-23T16:41:40;18.70;99.90
2839;DHT22;1427;48.510;9.060;2022-10-23T16:44:08;18.70;99.90
2839;DHT22;1427;48.510;9.060;2022-10-23T16:46:37;18.60;99.90